• Join FlightAware (Why Join?)
  • Login
  • US Flag 
09:37AM EDT


 

Airport Tracker/Info


-or-


 

Live Flight TrackerFlight Track Log ✈ SKW6241 ✈ 04-May-2013 ✈ KOKC - KSFO

Flight Track Log - Related Links

Times and Time Zones

All times are in EDT time to prevent confusion due to time zone crossing. See the SKW6241 flight status page for this flight to view local times or setup timezone preferences in your user account.

Time Position Orientation Groundspeed Altitude Reporting Facility
EDT Latitude Longitude Course Direction KTS MPH feet Rate Location/Type
07:16AM 35.4103 -97.6072 283° West 158 182 1,900  Level Fort Worth Center
07:18AM 35.4331 -97.6556 300° West 189 217 4,100 2,220 Climbing Fort Worth Center
07:19AM 35.4381 -97.9829 280° West  Level FlightAware Approximate
07:19AM 35.4456 -97.7194 284° West 192 221 6,600  Level Fort Worth Center
07:20AM 35.4550 -98.1117 278° West  Level FlightAware Approximate
07:20AM 35.4536 -97.7756 280° West 210 242 9,200  Level Fort Worth Center
07:21AM 35.4743 -98.2394 292° West  Level FlightAware Approximate
07:21AM 35.4658 -97.8494 282° West 210 242 10,500  Level Fort Worth Center
07:22AM 35.5013 -98.3653 283° West  Level FlightAware Approximate
07:22AM 35.4781 -97.9336 280° West 237 273 12,900  Level Fort Worth Center
07:23AM 35.4903 -98.0203 280° West 258 297 15,000 2,040 Climbing Fort Worth Center
07:24AM 35.5044 -98.1147 280° West 268 308 17,000 1,800 Climbing Fort Worth Center
07:25AM 35.5164 -98.2092 279° West 278 320 18,700 1,800 Climbing Fort Worth Center
07:26AM 35.5322 -98.3064 281° West 284 327 20,600 1,920 Climbing Fort Worth Center
07:27AM 35.5461 -98.4061 280° West 294 338 22,600 1,620 Climbing Fort Worth Center
07:28AM 35.5600 -98.5056 280° West 294 338 23,900 1,440 Climbing Fort Worth Center
07:29AM 35.5756 -98.6106 280° West 299 344 25,500 1,560 Climbing Fort Worth Center
07:30AM 35.5914 -98.7128 281° West 304 350 27,100 1,320 Climbing Fort Worth Center
07:31AM 35.6047 -98.8178 279° West 304 350 28,200 1,140 Climbing Fort Worth Center
07:32AM 35.6203 -98.9200 281° West 310 357 29,400 1,080 Climbing Fort Worth Center
07:33AM 35.6336 -99.0275 279° West 315 362 30,400 900 Climbing Fort Worth Center
07:34AM 35.6467 -99.1350 279° West 315 362 31,300 900 Climbing Fort Worth Center
07:35AM 35.6639 -99.2453 281° West 320 368 32,200 720 Climbing Fort Worth Center
07:36AM 35.6808 -99.3556 281° West 320 368 32,800 600 Climbing Fort Worth Center
07:37AM 35.6978 -99.4786 280° West 331 381 33,500 600 Climbing Fort Worth Center
07:38AM 35.7103 -99.5939 278° West 336 387 34,100 600 Climbing Fort Worth Center
07:38AM 35.7172 -99.6594 277° West 343 395 34,500 600 Climbing Albuquerque Center
07:39AM 35.7319 -99.7761 279° West 345 397 35,100 480 Climbing Albuquerque Center
07:40AM 35.7478 -99.8939 279° West 349 402 35,500 420 Climbing Albuquerque Center
07:41AM 35.7639 -100.0125 280° West 351 404 36,000 240 Climbing Albuquerque Center
07:42AM 35.7786 -100.1325 279° West 355 409 36,000  Level Albuquerque Center
07:43AM 35.7956 -100.2519 280° West 356 410 36,000  Level Albuquerque Center
07:44AM 35.8242 -100.3672 287° West 355 409 36,000  Level Albuquerque Center
07:45AM 35.8506 -100.4822 286° West 351 404 36,000  Level Albuquerque Center
07:46AM 35.8778 -100.5981 286° West 352 405 36,000  Level Albuquerque Center
07:47AM 35.9056 -100.7136 287° West 353 406 36,000  Level Albuquerque Center
07:48AM 35.9328 -100.8303 286° West 354 407 36,000  Level Albuquerque Center
07:49AM 35.9597 -100.9453 286° West 353 406 36,000  Level Albuquerque Center
07:50AM 35.9872 -101.0617 286° West 354 407 36,000  Level Albuquerque Center
07:51AM 36.0144 -101.1789 286° West 356 410 36,000  Level Albuquerque Center
07:52AM 36.0406 -101.2972 285° West 358 412 36,000  Level Albuquerque Center
07:53AM 36.0681 -101.4150 286° West 358 412 36,000  Level Albuquerque Center
07:54AM 36.0953 -101.5322 286° West 358 412 36,000  Level Albuquerque Center
07:55AM 36.1217 -101.6514 285° West 360 414 36,000  Level Albuquerque Center
07:56AM 36.1486 -101.7700 286° West 360 414 36,000  Level Albuquerque Center
07:57AM 36.1753 -101.8889 286° West 361 415 36,000  Level Albuquerque Center
07:58AM 36.2011 -102.0083 285° West 361 415 36,000  Level Albuquerque Center
07:59AM 36.2281 -102.1267 286° West 360 414 36,000  Level Albuquerque Center
08:00AM 36.2542 -102.2450 285° West 359 413 36,000  Level Albuquerque Center
08:01AM 36.2800 -102.3633 285° West 359 413 36,000  Level Albuquerque Center
08:02AM 36.3064 -102.4831 285° West 360 414 36,000  Level Albuquerque Center
08:03AM 36.3322 -102.6025 285° West 361 415 36,000  Level Albuquerque Center
08:04AM 36.3594 -102.7233 286° West 363 418 36,000  Level Albuquerque Center
08:05AM 36.3853 -102.8436 285° West 363 418 36,000  Level Albuquerque Center
08:06AM 36.4139 -102.9769 285° West 368 423 36,000  Level Albuquerque Center
08:07AM 36.4397 -103.0978 285° West 364 419 36,000  Level Albuquerque Center
08:08AM 36.4653 -103.2181 285° West 360 414 36,000  Level Albuquerque Center
08:09AM 36.4906 -103.3386 285° West 359 413 36,000  Level Albuquerque Center
08:10AM 36.5156 -103.4600 284° West 360 414 36,000  Level Albuquerque Center
08:11AM 36.5411 -103.5825 285° West 362 417 36,000  Level Albuquerque Center
08:12AM 36.5664 -103.7047 284° West 363 418 36,000  Level Albuquerque Center
08:13AM 36.5917 -103.8283 284° West 365 420 36,000  Level Albuquerque Center
08:14AM 36.6164 -103.9511 284° West 364 419 36,000  Level Albuquerque Center
08:15AM 36.6417 -104.0725 285° West 362 417 36,000  Level Albuquerque Center
08:16AM 36.6658 -104.1928 284° West 358 412 36,000  Level Albuquerque Center
08:17AM 36.6900 -104.3056 285° West 356 410 36,000  Level Albuquerque Center
08:18AM 36.7122 -104.4217 283° West 358 412 36,000  Level Albuquerque Center
08:19AM 36.7394 -104.5575 284° West 361 415 36,000  Level Albuquerque Center
08:20AM 36.7631 -104.6731 284° West 360 414 36,000  Level Albuquerque Center
08:21AM 36.7864 -104.7911 284° West 363 418 36,000  Level Albuquerque Center
08:22AM 36.8086 -104.9081 283° West 362 417 36,000  Level Albuquerque Center
08:23AM 36.8361 -105.0472 284° West 366 421 36,000  Level Albuquerque Center
08:24AM 36.8594 -105.1653 284° West 367 422 36,000  Level Albuquerque Center
08:25AM 36.8817 -105.2844 283° West 368 423 36,000  Level Albuquerque Center
08:26AM 36.8997 -105.3853 283° West 364 419 36,000  Level Denver Center
08:27AM 36.9244 -105.5072 284° West 375 432 36,000  Level Denver Center
08:28AM 36.9542 -105.6678 283° West 371 427 36,000  Level Denver Center
08:29AM 36.9761 -105.7875 283° West 369 425 36,000  Level Denver Center
08:30AM 36.9992 -105.9064 284° West 368 423 36,000  Level Denver Center
08:31AM 37.0200 -106.0256 282° West 360 414 36,000  Level Denver Center
08:32AM 37.0461 -106.1611 284° West 359 413 36,000  Level Denver Center
08:33AM 37.0672 -106.2758 283° West 359 413 36,000  Level Denver Center
08:34AM 37.0889 -106.3947 283° West 361 415 36,000  Level Denver Center
08:35AM 37.1122 -106.5322 282° West 362 417 36,000  Level Denver Center
08:36AM 37.1353 -106.6522 284° West 366 421 36,000  Level Denver Center
08:37AM 37.1594 -106.7869 283° West 371 427 36,000  Level Denver Center
08:38AM 37.1814 -106.9122 282° West 369 425 36,000  Level Denver Center
08:39AM 37.2028 -107.0339 282° West 373 429 36,000  Level Denver Center
08:40AM 37.2236 -107.1567 282° West 376 433 36,000  Level Denver Center
08:41AM 37.2483 -107.2964 283° West 368 423 36,000  Level Denver Center
08:42AM 37.2689 -107.4167 282° West 369 425 36,000  Level Denver Center
08:43AM 37.2897 -107.5350 283° West 366 421 36,000  Level Denver Center
08:44AM 37.3122 -107.6722 282° West 361 415 36,000  Level Denver Center
08:45AM 37.3333 -107.7903 283° West 363 418 36,000  Level Denver Center
08:46AM 37.3525 -107.9081 282° West 361 415 36,000  Level Denver Center
08:47AM 37.3750 -108.0444 282° West 358 412 36,000  Level Denver Center
08:48AM 37.3950 -108.1619 282° West 359 413 36,000  Level Denver Center
08:49AM 37.4142 -108.2797 282° West 361 415 36,000  Level Denver Center
08:50AM 37.4369 -108.4183 282° West 363 418 36,000  Level Denver Center
08:51AM 37.4564 -108.5350 282° West 358 412 36,000  Level Denver Center
08:53AM 37.4750 -108.6536 281° West 358 412 36,000  Level Denver Center
08:54AM 37.4967 -108.7922 281° West 362 417 36,000  Level Denver Center
08:55AM 37.5158 -108.9106 282° West 361 415 36,000  Level Denver Center
08:56AM 37.5353 -109.0292 282° West 361 415 36,000  Level Denver Center
08:57AM 37.5564 -109.1672 281° West 361 415 36,000  Level Denver Center
08:58AM 37.5747 -109.2875 281° West 365 420 36,000  Level Denver Center
08:59AM 37.5936 -109.4061 281° West 362 417 36,000  Level Denver Center
09:00AM 37.6150 -109.5447 281° West 363 418 36,000  Level Denver Center
09:01AM 37.6325 -109.6619 281° West 359 413 36,000  Level Denver Center
09:02AM 37.6503 -109.7806 281° West 360 414 36,000  Level Denver Center
09:03AM 37.6706 -109.9206 280° West 363 418 36,000  Level Denver Center
09:04AM 37.6917 -110.0583 281° West 360 414 36,000  Level Denver Center
09:05AM 37.7128 -110.1964 281° West 358 412 36,000  Level Denver Center
09:06AM 37.7292 -110.3153 280° West 359 413 36,000  Level Denver Center
09:07AM 37.7467 -110.4314 281° West 354 407 36,000  Level Denver Center
09:08AM 37.7644 -110.5606 280° West 356 410 36,000  Level Denver Center
09:09AM 37.7828 -110.6817 281° West 352 405 36,000  Level Denver Center
09:10AM 37.7994 -110.8025 280° West 350 403 36,000  Level Denver Center
09:11AM 37.8167 -110.9239 280° West 351 404 36,000  Level Denver Center
09:12AM 37.8339 -111.0450 280° West 351 404 36,000  Level Denver Center
09:13AM 37.8539 -111.1903 280° West 349 402 36,000  Level Salt Lake Center
09:14AM 37.8703 -111.3111 280° West 351 404 36,000  Level Salt Lake Center
09:15AM 37.8878 -111.4339 280° West 353 406 36,000  Level Salt Lake Center
09:16AM 37.9047 -111.5572 280° West 356 410 36,000  Level Salt Lake Center
09:17AM 37.9211 -111.6794 280° West 355 409 36,000  Level Salt Lake Center
09:18AM 37.9375 -111.8022 280° West 355 409 36,000  Level Salt Lake Center
09:19AM 37.9542 -111.9261 280° West 358 412 36,000  Level Salt Lake Center
09:20AM 37.9711 -112.0500 280° West 358 412 36,000  Level Salt Lake Center
09:21AM 37.9864 -112.1750 279° West 360 414 36,000  Level Salt Lake Center
09:22AM 38.0022 -112.2989 279° West 358 412 36,000  Level Salt Lake Center
09:23AM 38.0172 -112.4228 279° West 358 412 36,000  Level Salt Lake Center
09:24AM 38.0333 -112.5467 279° West 359 413 36,000  Level Salt Lake Center
09:25AM 38.0519 -112.6944 279° West 357 411 36,000  Level Salt Lake Center
09:26AM 38.0669 -112.8181 279° West 358 412 36,000  Level Salt Lake Center
09:27AM 38.0822 -112.9422 279° West 359 413 36,000  Level Salt Lake Center
09:28AM 38.0964 -113.0667 278° West 359 413 36,000  Level Salt Lake Center
09:29AM 38.1111 -113.1906 279° West 359 413 36,000  Level Salt Lake Center
09:30AM 38.1256 -113.3161 278° West 360 414 36,000  Level Salt Lake Center
09:31AM 38.1406 -113.4411 279° West 361 415 36,000  Level Salt Lake Center
09:32AM 38.1564 -113.5653 279° West 360 414 36,000  Level Salt Lake Center
09:33AM 38.1711 -113.6919 278° West 364 419 36,000  Level Salt Lake Center
09:34AM 38.1858 -113.8169 279° West 361 415 36,000  Level Salt Lake Center
09:35AM 38.1997 -113.9414 278° West 358 412 36,000  Level Salt Lake Center
09:36AM 38.2136 -114.0667 278° West 359 413 36,000  Level Salt Lake Center
09:37AM 38.2303 -114.2178 278° West 361 415 36,000  Level Salt Lake Center
09:38AM 38.2431 -114.3425 277° West 359 413 36,000  Level Salt Lake Center
09:39AM 38.2453 -114.4722 271° West 367 422 36,000  Level Salt Lake Center
09:40AM 38.2372 -114.6011 265° West 368 423 36,000  Level Salt Lake Center
09:41AM 38.2297 -114.7311 266° West 369 425 36,000  Level Salt Lake Center
09:42AM 38.2206 -114.8614 265° West 371 427 36,000  Level Salt Lake Center
09:43AM 38.2125 -114.9944 266° West 376 433 36,000  Level Salt Lake Center
09:44AM 38.2039 -115.1264 265° West 376 433 36,000  Level Salt Lake Center
09:45AM 38.1953 -115.2581 265° West 375 432 36,000  Level Salt Lake Center
09:46AM 38.1869 -115.3911 265° West 374 430 36,000  Level Salt Lake Center
09:47AM 38.1781 -115.5203 265° West 367 422 36,000  Level Salt Lake Center
09:48AM 38.1694 -115.6483 265° West 366 421 36,000  Level Salt Lake Center
09:49AM 38.1597 -115.7769 265° West 365 420 36,000  Level Salt Lake Center
09:51AM 38.1492 -115.9311 265° West 366 421 36,000  Level Salt Lake Center
09:52AM 38.1394 -116.0603 265° West 366 421 36,000  Level Salt Lake Center
09:53AM 38.1300 -116.1897 265° West 367 422 36,000  Level Salt Lake Center
09:54AM 38.1206 -116.3200 265° West 368 423 36,000  Level Salt Lake Center
09:55AM 38.1106 -116.4492 264° West 371 427 36,000  Level Oakland Center
09:56AM 38.1008 -116.5786 265° West 368 423 36,000  Level Salt Lake Center
09:57AM 38.0903 -116.7089 264° West 370 426 36,000  Level Salt Lake Center
09:58AM 38.0806 -116.8394 265° West 370 426 36,000  Level Salt Lake Center
09:59AM 38.0700 -116.9686 264° West 367 422 36,000  Level Salt Lake Center
10:00AM 38.0589 -117.0997 264° West 370 426 36,000  Level Oakland Center
10:01AM 38.0483 -117.2350 264° West 371 427 36,000  Level Oakland Center
10:02AM 38.0389 -117.3425 264° West 375 432 36,000  Level Oakland Center
10:03AM 38.0281 -117.4750 264° West 374 430 36,000  Level Oakland Center
10:04AM 38.0153 -117.6311 264° West 370 426 36,000  Level Oakland Center
10:05AM 38.0039 -117.7625 264° West 373 429 36,000  Level Oakland Center
10:06AM 37.9903 -117.8936 263° West 374 430 36,000  Level Oakland Center
10:07AM 37.9758 -118.0233 262° West 373 429 36,000  Level Oakland Center
10:08AM 37.9617 -118.1525 262° West 370 426 36,000  Level Oakland Center
10:09AM 37.9481 -118.2842 263° West 374 430 36,000  Level Oakland Center
10:10AM 37.9328 -118.4158 262° West 378 435 36,000  Level Oakland Center
10:11AM 37.9183 -118.5483 262° West 378 435 36,000  Level Oakland Center
10:12AM 37.9036 -118.6806 262° West 379 436 36,000  Level Oakland Center
10:13AM 37.8894 -118.8136 262° West 380 437 36,000  Level Oakland Center
10:14AM 37.8744 -118.9467 262° West 381 438 36,000  Level Oakland Center
10:15AM 37.8589 -119.0872 262° West 385 443 36,000  Level Oakland Center
10:16AM 37.8414 -119.2208 261° West 385 443 36,000  Level Oakland Center
10:17AM 37.8264 -119.3531 262° West 381 438 36,000  Level Oakland Center
10:18AM 37.8117 -119.4839 262° West 377 434 36,000  Level Oakland Center
10:19AM 37.7958 -119.6144 261° West 375 432 36,000  Level Oakland Center
10:20AM 37.7803 -119.7433 261° West 373 429 36,000  Level Oakland Center
10:21AM 37.7656 -119.8725 262° West 372 428 36,000 -600 Level Oakland Center
10:22AM 37.7489 -120.0033 261° West 376 433 34,900 -1,500 Descending Oakland Center
10:23AM 37.7331 -120.1358 261° West 379 436 33,000 -1,440 Descending Oakland Center
10:24AM 37.7169 -120.2661 261° West 377 434 32,000 -600 Descending Oakland Center
10:25AM 37.7000 -120.3983 261° West 377 434 31,900 -1,200 Descending Oakland Center
10:26AM 37.6828 -120.5328 261° West 382 440 29,600 -2,280 Descending Oakland Center
10:27AM 37.6644 -120.6642 260° West 381 438 27,300 -2,520 Descending Oakland Center
10:28AM 37.6500 -120.7833 261° West 366 421 25,100 -2,640 Descending Northern Cal TRACON
10:29AM 37.6333 -120.9000 260° West 387 445 22,900 -2,340 Descending Northern Cal TRACON
10:30AM 37.6167 -121.0333 261° West 392 451 20,700 -2,280 Descending Northern Cal TRACON
10:31AM 37.6000 -121.1667 261° West 387 445 18,400 -2,400 Descending Northern Cal TRACON
10:32AM 37.5833 -121.3000 261° West 365 420 15,900 -2,340 Descending Northern Cal TRACON
10:33AM 37.5833 -121.4167 270° West 349 402 13,800 -2,100 Descending Northern Cal TRACON
10:34AM 37.5667 -121.5333 260° West 336 387 11,700 -1,500 Descending Northern Cal TRACON
10:35AM 37.5500 -121.6333 258° West 312 359 11,000 -420 Descending Northern Cal TRACON
10:36AM 37.5333 -121.7167 256° West 259 298 11,000 -180 Level Northern Cal TRACON
10:37AM 37.5000 -121.8000 243° Southwest 251 289 10,700 -840 Descending Northern Cal TRACON
10:37AM 37.4833 -121.8833 256° West 252 290 9,500 -1,440 Descending Northern Cal TRACON
10:39AM 37.5000 -121.9667 284° West 238 274 7,900 -1,380 Descending Northern Cal TRACON
10:39AM 37.5167 -122.0333 288° West 240 276 6,800 -1,440 Descending Northern Cal TRACON
10:40AM 37.5333 -122.1167 284° West 236 272 5,400 -1,500 Descending Northern Cal TRACON
10:41AM 37.5519 -122.1539 302° West 233 268 4,300 -1,380 Descending Oakland Center